Time;durP1;ratioP1;P1;durP2;ratioP2;P2;SDS_P1;SDS_P2;PMS_P1;PMS_P2;Temp;Humidity;BMP_temperature;BMP_pressure;BME280_temperature;BME280_humidity;BME280_pressure;Samples;Min_cycle;Max_cycle;Signal;HPM_P1;HPM_P2
2022/10/16 00:01:56;;;;;;;3.22;0.93;;;16.60;89.20;;;;;;5025649;28;20380;-78
2022/10/16 00:04:21;;;;;;;1.92;0.80;;;16.70;89.10;;;;;;5021179;28;20038;-76
2022/10/16 00:06:47;;;;;;;2.00;0.82;;;16.60;89.00;;;;;;5019083;28;20030;-77
2022/10/16 00:09:12;;;;;;;2.28;0.90;;;16.60;89.20;;;;;;5021504;28;20025;-77
2022/10/16 00:11:40;;;;;;;1.55;0.93;;;16.60;89.10;;;;;;5017615;28;20033;-77
2022/10/16 00:14:09;;;;;;;1.63;0.80;;;16.70;88.80;;;;;;5017476;28;20022;-78
2022/10/16 00:16:35;;;;;;;1.15;0.85;;;16.70;88.60;;;;;;5020225;28;20108;-78
2022/10/16 00:19:00;;;;;;;1.67;0.90;;;16.70;88.70;;;;;;5026937;28;20447;-77
2022/10/16 00:21:28;;;;;;;1.85;0.82;;;16.70;88.70;;;;;;5022220;28;20025;-78
2022/10/16 00:23:56;;;;;;;2.03;0.90;;;16.70;88.80;;;;;;5023049;28;20068;-78
2022/10/16 00:26:22;;;;;;;1.80;0.90;;;16.70;88.80;;;;;;5018997;28;20755;-78
2022/10/16 00:28:49;;;;;;;2.55;1.00;;;16.70;88.90;;;;;;5026368;28;20037;-78
2022/10/16 00:31:16;;;;;;;2.30;0.82;;;16.70;88.90;;;;;;5025328;28;20030;-77
2022/10/16 00:33:42;;;;;;;1.73;0.90;;;16.70;88.80;;;;;;5025658;28;20060;-77
2022/10/16 00:36:10;;;;;;;1.48;0.82;;;16.70;89.00;;;;;;5022928;28;20021;-77
2022/10/16 00:38:37;;;;;;;1.80;1.00;;;16.70;88.80;;;;;;5017858;28;20021;-78
2022/10/16 00:41:04;;;;;;;1.83;0.93;;;16.70;88.80;;;;;;5055815;28;20079;-77
2022/10/16 00:43:44;;;;;;;2.47;0.90;;;16.60;88.70;;;;;;5023432;28;20026;-78
2022/10/16 00:46:26;;;;;;;1.48;0.90;;;16.60;88.70;;;;;;5023688;28;20029;-77
2022/10/16 00:49:00;;;;;;;2.15;1.00;;;16.60;88.90;;;;;;5020725;28;20388;-77
2022/10/16 00:51:33;;;;;;;1.83;0.80;;;16.60;88.90;;;;;;5011080;28;20037;-77
2022/10/16 00:54:00;;;;;;;2.78;1.00;;;16.60;89.50;;;;;;5017588;28;20032;-77
2022/10/16 00:56:26;;;;;;;2.90;1.00;;;16.50;89.10;;;;;;5019364;28;20032;-78
2022/10/16 00:58:52;;;;;;;1.90;0.90;;;16.60;89.10;;;;;;5026530;28;20489;-77
2022/10/16 01:01:17;;;;;;;1.95;1.00;;;16.60;89.20;;;;;;5020146;28;20029;-77
2022/10/16 01:03:43;;;;;;;1.83;0.90;;;16.60;89.20;;;;;;5020723;28;20033;-76
2022/10/16 01:06:24;;;;;;;1.48;0.80;;;16.50;89.30;;;;;;5022190;28;20460;-76
2022/10/16 01:09:20;;;;;;;1.17;0.80;;;16.60;89.20;;;;;;5014744;28;20392;-77
2022/10/16 01:12:08;;;;;;;1.98;1.00;;;16.60;89.20;;;;;;5026921;28;20516;-77
2022/10/16 01:14:56;;;;;;;1.83;0.85;;;16.60;88.80;;;;;;5028415;28;20021;-78
2022/10/16 01:17:46;;;;;;;1.75;0.90;;;16.70;88.60;;;;;;5025528;28;20076;-78
2022/10/16 01:20:38;;;;;;;1.13;0.90;;;16.70;88.40;;;;;;5050119;28;20033;-77
2022/10/16 01:23:10;;;;;;;1.70;0.80;;;16.70;88.50;;;;;;5062757;28;20384;-77
2022/10/16 01:25:38;;;;;;;1.13;0.80;;;16.70;88.60;;;;;;5032376;28;20140;-78
2022/10/16 01:28:09;;;;;;;2.83;1.00;;;16.70;88.60;;;;;;5031893;28;20029;-77
2022/10/16 01:30:36;;;;;;;1.80;1.00;;;16.70;88.70;;;;;;5027799;28;20373;-78
2022/10/16 01:33:12;;;;;;;1.60;0.90;;;16.70;88.80;;;;;;5026744;28;20025;-77
2022/10/16 01:35:48;;;;;;;2.22;1.20;;;16.60;88.80;;;;;;5033003;28;20044;-78
2022/10/16 01:38:23;;;;;;;1.92;0.80;;;16.60;88.90;;;;;;5033764;28;20029;-77
2022/10/16 01:40:59;;;;;;;3.17;0.93;;;16.60;88.90;;;;;;5031246;28;20057;-77
2022/10/16 01:43:31;;;;;;;1.08;0.70;;;16.60;88.90;;;;;;5065972;28;20029;-77
2022/10/16 01:45:58;;;;;;;1.73;0.80;;;16.60;88.90;;;;;;5033894;28;20159;-78
2022/10/16 01:48:24;;;;;;;3.03;1.10;;;16.60;88.90;;;;;;5032970;28;20025;-79
2022/10/16 01:51:01;;;;;;;1.65;0.90;;;16.60;89.00;;;;;;5029049;28;20036;-78
2022/10/16 01:53:27;;;;;;;1.13;0.75;;;16.60;89.10;;;;;;5014038;28;20544;-77
2022/10/16 01:55:55;;;;;;;1.67;0.82;;;16.60;89.10;;;;;;5013573;28;20062;-77
2022/10/16 01:58:22;;;;;;;1.40;0.70;;;16.60;89.10;;;;;;5012593;28;20026;-76
2022/10/16 02:00:48;;;;;;;1.17;0.80;;;16.60;89.10;;;;;;5011913;28;20557;-77
2022/10/16 02:03:18;;;;;;;1.60;0.88;;;16.60;89.20;;;;;;5015597;28;20034;-77
2022/10/16 02:05:58;;;;;;;1.92;0.93;;;16.60;89.30;;;;;;5026165;28;20041;-77
2022/10/16 02:08:28;;;;;;;1.60;0.80;;;16.60;89.20;;;;;;5025486;28;20060;-78
2022/10/16 02:10:55;;;;;;;1.95;1.00;;;16.60;89.20;;;;;;5022247;28;20037;-77
2022/10/16 02:13:33;;;;;;;0.95;0.73;;;16.60;89.30;;;;;;5027663;28;20481;-78
2022/10/16 02:15:59;;;;;;;1.30;0.88;;;16.60;89.10;;;;;;5024967;28;20362;-78
2022/10/16 02:18:29;;;;;;;1.10;0.65;;;16.60;88.70;;;;;;5028713;28;20029;-79
2022/10/16 02:21:02;;;;;;;1.13;0.70;;;16.60;88.40;;;;;;5025648;28;20508;-77
2022/10/16 02:23:43;;;;;;;1.98;0.95;;;16.60;88.30;;;;;;5020794;28;20029;-77
2022/10/16 02:26:15;;;;;;;1.50;0.80;;;16.60;88.40;;;;;;5024404;28;20061;-78
2022/10/16 02:28:48;;;;;;;2.42;1.13;;;16.70;88.50;;;;;;5061370;28;20111;-77
2022/10/16 02:31:21;;;;;;;1.88;0.80;;;16.60;88.40;;;;;;5021870;28;20025;-77
2022/10/16 02:33:47;;;;;;;2.03;0.80;;;16.60;88.50;;;;;;5024317;28;20095;-78
2022/10/16 02:36:13;;;;;;;1.38;0.90;;;16.60;88.70;;;;;;5056344;28;20041;-77
2022/10/16 02:38:40;;;;;;;1.25;0.80;;;16.60;88.70;;;;;;5028615;28;20042;-77
2022/10/16 02:41:06;;;;;;;1.05;0.73;;;16.60;88.90;;;;;;5061923;28;20053;-78
2022/10/16 02:43:33;;;;;;;2.10;0.80;;;16.60;88.90;;;;;;5023449;28;20072;-78
2022/10/16 02:45:59;;;;;;;1.63;1.00;;;16.60;89.00;;;;;;5023350;28;20440;-78
2022/10/16 02:48:24;;;;;;;2.03;1.00;;;16.60;89.00;;;;;;5026004;28;20065;-77
2022/10/16 02:50:50;;;;;;;0.95;0.80;;;16.50;89.00;;;;;;5045863;28;20127;-78
2022/10/16 02:53:16;;;;;;;1.85;0.90;;;16.60;89.10;;;;;;5019693;28;20036;-78
2022/10/16 02:55:42;;;;;;;1.85;0.90;;;16.50;89.00;;;;;;5029205;28;20030;-78
2022/10/16 02:58:07;;;;;;;1.08;0.90;;;16.60;89.00;;;;;;5023035;28;20037;-77
2022/10/16 03:00:33;;;;;;;1.98;0.93;;;16.50;89.10;;;;;;5026669;28;20045;-77
2022/10/16 03:02:58;;;;;;;1.70;0.90;;;16.50;89.10;;;;;;5058553;28;20032;-78
2022/10/16 03:05:24;;;;;;;1.42;0.77;;;16.50;89.10;;;;;;5027265;28;20048;-77
2022/10/16 03:07:49;;;;;;;1.90;0.93;;;16.50;89.10;;;;;;5025798;28;20144;-77
2022/10/16 03:10:15;;;;;;;2.05;1.02;;;16.50;89.10;;;;;;5027437;28;20502;-77
2022/10/16 03:12:40;;;;;;;1.40;0.80;;;16.50;89.10;;;;;;5025120;28;20037;-78
2022/10/16 03:15:07;;;;;;;1.52;0.80;;;16.50;89.10;;;;;;5019275;28;20018;-77
2022/10/16 03:17:33;;;;;;;1.95;0.90;;;16.50;89.10;;;;;;5015239;28;20117;-79
2022/10/16 03:19:58;;;;;;;0.82;0.80;;;16.50;88.70;;;;;;5022057;28;20120;-78
2022/10/16 03:22:24;;;;;;;1.63;1.05;;;16.60;88.40;;;;;;5026096;28;20496;-77
2022/10/16 03:24:49;;;;;;;1.83;0.88;;;16.60;88.40;;;;;;5027629;28;20118;-77
2022/10/16 03:27:15;;;;;;;1.35;0.85;;;16.60;88.40;;;;;;5027895;28;20744;-78
2022/10/16 03:29:40;;;;;;;1.08;0.70;;;16.60;88.30;;;;;;5027441;28;20028;-77
2022/10/16 03:32:06;;;;;;;0.95;0.73;;;16.60;88.30;;;;;;5027199;28;20017;-79
2022/10/16 03:34:31;;;;;;;1.63;0.82;;;16.60;88.40;;;;;;5025392;28;20136;-77
2022/10/16 03:36:57;;;;;;;0.95;0.70;;;16.60;88.50;;;;;;5020367;28;20385;-77
2022/10/16 03:39:22;;;;;;;1.17;0.82;;;16.60;88.80;;;;;;5007904;28;20037;-77
2022/10/16 03:41:48;;;;;;;1.27;0.90;;;16.60;88.70;;;;;;5007279;28;20025;-76
2022/10/16 03:44:14;;;;;;;1.70;0.85;;;16.60;88.80;;;;;;5007693;28;20026;-77
2022/10/16 03:46:39;;;;;;;1.33;0.85;;;16.60;88.90;;;;;;5007235;28;21070;-77
2022/10/16 03:49:05;;;;;;;1.23;0.77;;;16.60;88.80;;;;;;5007737;28;20045;-79
2022/10/16 03:51:31;;;;;;;2.25;0.90;;;16.50;88.70;;;;;;5006107;28;20026;-78
2022/10/16 03:53:56;;;;;;;1.83;0.95;;;16.60;88.80;;;;;;5007369;28;20026;-78
2022/10/16 03:56:22;;;;;;;1.20;0.75;;;16.60;89.00;;;;;;5007545;28;20564;-77
2022/10/16 03:58:48;;;;;;;1.23;0.82;;;16.50;88.90;;;;;;5022221;28;20053;-77
2022/10/16 04:01:13;;;;;;;1.55;0.90;;;16.50;88.80;;;;;;5006211;28;20022;-77
2022/10/16 04:03:39;;;;;;;2.28;1.00;;;16.50;88.90;;;;;;5007316;28;20482;-78
2022/10/16 04:06:04;;;;;;;1.73;0.70;;;16.50;88.80;;;;;;5016711;28;20028;-77
2022/10/16 04:08:30;;;;;;;1.05;0.68;;;16.50;88.90;;;;;;5024569;28;20036;-76
2022/10/16 04:10:55;;;;;;;1.48;0.90;;;16.50;89.00;;;;;;5057403;28;20026;-77
2022/10/16 04:13:21;;;;;;;1.90;0.95;;;16.50;89.00;;;;;;5022961;28;20040;-77
2022/10/16 04:15:47;;;;;;;1.38;0.82;;;16.50;89.00;;;;;;5020125;28;20014;-76
2022/10/16 04:18:12;;;;;;;1.02;0.77;;;16.50;88.90;;;;;;5025342;28;20040;-77
2022/10/16 04:20:38;;;;;;;1.58;0.90;;;16.50;88.60;;;;;;5021479;28;20036;-77
2022/10/16 04:23:03;;;;;;;1.63;0.70;;;16.50;88.50;;;;;;5023692;28;20022;-77
2022/10/16 04:25:29;;;;;;;1.52;0.80;;;16.50;88.30;;;;;;5024511;28;20025;-76
2022/10/16 04:27:55;;;;;;;1.88;0.80;;;16.50;88.30;;;;;;5025172;28;20376;-77
2022/10/16 04:30:22;;;;;;;1.05;0.80;;;16.60;88.30;;;;;;5048981;28;20564;-76
2022/10/16 04:32:49;;;;;;;0.60;0.60;;;16.60;88.30;;;;;;5057244;28;20057;-77
2022/10/16 04:35:15;;;;;;;1.52;0.77;;;16.60;88.30;;;;;;5026678;28;20026;-77
2022/10/16 04:37:41;;;;;;;1.17;0.75;;;16.60;88.40;;;;;;5025317;28;20095;-78
2022/10/16 04:40:07;;;;;;;2.00;0.90;;;16.60;88.50;;;;;;5016029;28;20026;-78
2022/10/16 04:42:32;;;;;;;1.15;0.80;;;16.60;88.60;;;;;;5027149;28;20562;-78
2022/10/16 04:44:58;;;;;;;1.33;0.80;;;16.60;88.70;;;;;;5024895;28;20030;-78
2022/10/16 04:47:23;;;;;;;1.42;0.80;;;16.50;88.70;;;;;;5028017;28;20025;-78
2022/10/16 04:49:49;;;;;;;2.13;0.80;;;16.50;88.70;;;;;;5036441;28;20079;-78
2022/10/16 04:52:15;;;;;;;1.33;0.82;;;16.50;88.70;;;;;;5031471;28;20078;-78
2022/10/16 04:54:40;;;;;;;1.60;0.90;;;16.50;88.80;;;;;;5024823;28;20136;-78
2022/10/16 04:57:06;;;;;;;1.27;0.65;;;16.50;88.90;;;;;;5025935;28;20104;-79
2022/10/16 04:59:31;;;;;;;1.85;0.90;;;16.60;88.90;;;;;;5024445;28;20057;-77
2022/10/16 05:01:57;;;;;;;1.08;0.70;;;16.50;89.00;;;;;;5017695;28;20085;-78
2022/10/16 05:04:23;;;;;;;1.67;0.90;;;16.50;88.90;;;;;;5027387;28;20043;-78
2022/10/16 05:06:48;;;;;;;1.13;0.80;;;16.50;88.90;;;;;;5027555;28;20030;-77
2022/10/16 05:09:14;;;;;;;1.35;0.80;;;16.50;88.90;;;;;;5027631;28;20029;-78
2022/10/16 05:11:40;;;;;;;0.90;0.70;;;16.50;88.90;;;;;;5022276;28;20760;-77
2022/10/16 05:14:05;;;;;;;1.00;0.80;;;16.50;88.90;;;;;;5025125;28;20022;-78
2022/10/16 05:16:31;;;;;;;0.80;0.70;;;16.50;88.90;;;;;;5023171;28;20022;-78
2022/10/16 05:18:56;;;;;;;1.25;0.70;;;16.50;88.90;;;;;;5020700;28;20554;-77
2022/10/16 05:21:22;;;;;;;1.13;0.75;;;16.50;88.90;;;;;;5024866;28;20033;-77
2022/10/16 05:23:48;;;;;;;1.10;0.77;;;16.50;88.70;;;;;;5025524;28;20623;-78
2022/10/16 05:26:13;;;;;;;0.90;0.65;;;16.50;88.50;;;;;;5022366;28;20025;-77
2022/10/16 05:28:39;;;;;;;1.23;0.80;;;16.50;88.30;;;;;;5024965;28;20075;-76
2022/10/16 05:31:08;;;;;;;1.45;0.80;;;16.50;88.10;;;;;;5023203;28;20033;-77
2022/10/16 05:33:34;;;;;;;1.88;1.00;;;16.60;88.10;;;;;;5025709;28;20702;-77
2022/10/16 05:36:04;;;;;;;1.95;0.95;;;16.70;88.30;;;;;;5020339;28;20061;-77
2022/10/16 05:38:30;;;;;;;1.27;0.68;;;16.50;88.30;;;;;;5025936;28;20032;-78
2022/10/16 05:40:56;;;;;;;1.38;0.80;;;16.60;88.30;;;;;;5025888;28;20029;-77
2022/10/16 05:43:22;;;;;;;0.88;0.70;;;16.50;88.40;;;;;;5026242;28;20065;-77
2022/10/16 05:46:03;;;;;;;1.50;0.80;;;16.60;88.50;;;;;;5024387;28;20671;-77
2022/10/16 05:48:28;;;;;;;1.20;0.70;;;16.50;88.60;;;;;;5024460;28;20168;-76
2022/10/16 05:51:02;;;;;;;0.82;0.68;;;16.50;88.60;;;;;;5025069;28;20112;-78
2022/10/16 05:53:30;;;;;;;0.77;0.60;;;16.50;88.60;;;;;;5057444;28;20028;-77
2022/10/16 05:55:56;;;;;;;1.13;0.80;;;16.50;88.60;;;;;;5057218;28;20400;-78
2022/10/16 05:58:22;;;;;;;1.00;0.77;;;16.50;88.60;;;;;;5029441;28;20022;-77
2022/10/16 06:00:54;;;;;;;1.52;0.80;;;16.50;88.70;;;;;;5028381;28;20032;-78
2022/10/16 06:03:20;;;;;;;1.45;0.82;;;16.50;88.70;;;;;;5028638;28;20392;-77
2022/10/16 06:05:46;;;;;;;1.80;0.77;;;16.50;88.70;;;;;;5026861;28;20029;-77
2022/10/16 06:08:11;;;;;;;1.02;0.70;;;16.50;88.70;;;;;;5028407;28;20025;-77
2022/10/16 06:10:37;;;;;;;1.10;0.70;;;16.50;88.60;;;;;;5027896;28;20025;-77
2022/10/16 06:13:02;;;;;;;1.17;0.80;;;16.50;88.70;;;;;;5027259;28;20021;-77
2022/10/16 06:15:28;;;;;;;1.23;0.80;;;16.50;88.70;;;;;;5026901;28;20014;-76
2022/10/16 06:17:53;;;;;;;1.17;0.70;;;16.50;88.60;;;;;;5027041;28;20770;-77
2022/10/16 06:20:19;;;;;;;0.98;0.70;;;16.50;88.60;;;;;;5059679;28;20023;-76
2022/10/16 06:22:44;;;;;;;1.20;0.70;;;16.50;88.40;;;;;;5028660;28;20041;-76
2022/10/16 06:25:10;;;;;;;1.70;0.82;;;16.50;88.40;;;;;;5026417;28;20026;-77
2022/10/16 06:27:35;;;;;;;2.17;1.10;;;16.50;88.30;;;;;;5028871;28;20041;-77
2022/10/16 06:30:01;;;;;;;1.00;0.77;;;16.60;88.30;;;;;;5032981;28;20024;-78
2022/10/16 06:32:27;;;;;;;1.08;0.60;;;16.60;88.00;;;;;;5048636;28;20021;-77
2022/10/16 06:34:53;;;;;;;1.15;0.80;;;16.60;87.90;;;;;;5047410;28;20401;-77
2022/10/16 06:37:18;;;;;;;0.88;0.60;;;16.70;87.70;;;;;;5048357;28;20017;-77
2022/10/16 06:39:44;;;;;;;1.20;0.80;;;16.70;87.40;;;;;;5047507;28;20024;-77
2022/10/16 06:42:09;;;;;;;1.10;0.60;;;16.70;87.40;;;;;;5047165;28;20079;-77
2022/10/16 06:44:35;;;;;;;0.88;0.70;;;16.80;87.40;;;;;;5049937;28;20855;-78
2022/10/16 06:47:00;;;;;;;1.30;0.70;;;16.60;87.30;;;;;;5048707;28;20025;-77
2022/10/16 06:49:28;;;;;;;1.20;0.70;;;16.70;87.40;;;;;;5047145;28;20024;-78
2022/10/16 06:51:53;;;;;;;1.77;0.80;;;16.70;87.50;;;;;;5046625;28;20484;-77
2022/10/16 06:54:19;;;;;;;1.13;0.70;;;16.70;87.50;;;;;;5048536;28;20028;-77
2022/10/16 06:56:45;;;;;;;0.82;0.60;;;16.70;87.50;;;;;;5048289;28;20060;-78
2022/10/16 06:59:10;;;;;;;1.75;0.77;;;16.70;87.50;;;;;;5040245;28;20500;-77
2022/10/16 07:01:36;;;;;;;2.58;0.70;;;16.70;87.40;;;;;;5027378;28;20036;-79
2022/10/16 07:04:02;;;;;;;1.92;0.80;;;16.70;87.50;;;;;;5026461;28;20083;-77
2022/10/16 07:06:31;;;;;;;1.42;0.70;;;16.80;87.50;;;;;;5043320;28;20071;-77
2022/10/16 07:08:57;;;;;;;1.60;0.77;;;16.80;87.40;;;;;;5048042;28;20056;-78
2022/10/16 07:11:24;;;;;;;0.77;0.60;;;16.80;87.10;;;;;;5026783;28;20060;-77
2022/10/16 07:13:50;;;;;;;1.58;0.80;;;16.80;86.90;;;;;;5028442;28;20125;-78
2022/10/16 07:16:18;;;;;;;0.80;0.60;;;16.90;86.90;;;;;;5028337;28;20028;-76
2022/10/16 07:18:45;;;;;;;2.20;0.70;;;16.90;86.70;;;;;;5025541;28;20072;-77
2022/10/16 07:21:16;;;;;;;1.00;0.65;;;16.90;86.50;;;;;;5024109;28;20472;-77
2022/10/16 07:23:42;;;;;;;1.10;0.70;;;17.00;86.30;;;;;;5022323;28;20132;-77
2022/10/16 07:26:08;;;;;;;0.90;0.57;;;17.10;86.20;;;;;;5027342;28;20037;-77
2022/10/16 07:28:33;;;;;;;1.58;0.90;;;17.10;86.00;;;;;;5022074;28;20026;-77
2022/10/16 07:31:08;;;;;;;1.20;0.68;;;17.10;85.90;;;;;;5026159;28;20101;-77
2022/10/16 07:33:34;;;;;;;1.45;0.73;;;17.20;85.80;;;;;;5027250;28;20075;-78
2022/10/16 07:36:00;;;;;;;0.88;0.73;;;17.20;85.60;;;;;;5023132;28;20018;-78
2022/10/16 07:38:26;;;;;;;1.05;0.63;;;17.20;85.40;;;;;;5026812;28;20091;-77
2022/10/16 07:41:04;;;;;;;0.90;0.70;;;17.20;85.30;;;;;;5025973;28;20086;-80
2022/10/16 07:43:29;;;;;;;0.90;0.57;;;17.30;85.30;;;;;;5018387;28;20390;-77
2022/10/16 07:45:56;;;;;;;0.85;0.57;;;17.30;85.30;;;;;;5024108;28;20017;-76
2022/10/16 07:48:23;;;;;;;0.95;0.57;;;17.20;85.40;;;;;;5024196;28;20037;-77
2022/10/16 07:50:49;;;;;;;2.05;0.75;;;17.20;85.60;;;;;;5025478;28;20079;-76
2022/10/16 07:53:14;;;;;;;0.82;0.63;;;17.20;85.60;;;;;;5024967;28;20024;-76
2022/10/16 07:55:40;;;;;;;1.20;0.68;;;17.10;85.70;;;;;;5024711;28;20022;-77
2022/10/16 07:58:06;;;;;;;1.45;0.70;;;17.20;85.80;;;;;;5022353;28;20434;-76
2022/10/16 08:00:32;;;;;;;1.25;0.70;;;17.20;85.60;;;;;;5023674;28;20044;-76
2022/10/16 08:03:01;;;;;;;0.90;0.60;;;17.20;85.40;;;;;;5050253;28;20465;-76
2022/10/16 08:05:32;;;;;;;0.68;0.60;;;17.30;85.30;;;;;;5025017;28;20067;-76
2022/10/16 08:07:57;;;;;;;0.93;0.60;;;17.40;85.00;;;;;;5024925;28;20163;-76
2022/10/16 08:10:25;;;;;;;1.20;0.70;;;17.40;84.70;;;;;;5025265;28;20357;-76
2022/10/16 08:12:52;;;;;;;0.98;0.68;;;17.50;84.50;;;;;;5021194;28;20028;-75
2022/10/16 08:15:18;;;;;;;0.68;0.57;;;17.50;84.30;;;;;;5018010;28;20018;-76
2022/10/16 08:17:44;;;;;;;0.93;0.73;;;17.60;84.20;;;;;;5018421;28;20642;-76
2022/10/16 08:20:10;;;;;;;1.10;0.70;;;17.60;84.20;;;;;;5023391;28;20083;-78
2022/10/16 08:22:36;;;;;;;1.65;0.88;;;17.50;84.30;;;;;;5028224;28;20033;-77
2022/10/16 08:25:02;;;;;;;0.68;0.60;;;17.40;84.50;;;;;;5024063;28;20025;-76
2022/10/16 08:27:33;;;;;;;1.05;0.60;;;17.40;84.70;;;;;;5026269;28;20481;-78
2022/10/16 08:29:59;;;;;;;0.68;0.50;;;17.40;84.90;;;;;;5028613;28;20022;-78
2022/10/16 08:32:24;;;;;;;1.55;0.70;;;17.40;85.00;;;;;;5022274;28;20658;-77
2022/10/16 08:34:50;;;;;;;1.33;0.70;;;17.40;85.00;;;;;;5053656;28;20047;-77
2022/10/16 08:37:15;;;;;;;1.02;0.52;;;17.40;84.80;;;;;;5021226;28;20034;-77
2022/10/16 08:39:41;;;;;;;0.98;0.60;;;17.50;84.60;;;;;;5026571;28;20097;-77
2022/10/16 08:42:14;;;;;;;1.02;0.70;;;17.50;84.40;;;;;;5024603;28;20033;-80
2022/10/16 08:45:04;;;;;;;1.98;0.60;;;17.60;84.30;;;;;;5023651;28;20112;-78
2022/10/16 08:47:50;;;;;;;0.55;0.50;;;17.60;84.00;;;;;;5025597;28;20382;-77
2022/10/16 08:50:30;;;;;;;0.73;0.60;;;17.70;83.80;;;;;;5026126;28;20024;-76
2022/10/16 08:52:56;;;;;;;2.30;0.60;;;17.70;83.80;;;;;;5025067;28;20017;-78
2022/10/16 08:55:46;;;;;;;0.82;0.50;;;17.70;83.90;;;;;;5026116;28;20076;-77
2022/10/16 08:58:14;;;;;;;0.77;0.57;;;17.70;84.00;;;;;;5028380;28;20111;-76
2022/10/16 09:00:41;;;;;;;1.52;0.73;;;17.60;84.10;;;;;;5020433;28;20021;-80
2022/10/16 09:03:42;;;;;;;0.70;0.60;;;17.60;84.10;;;;;;5027342;28;20199;-80
2022/10/16 09:06:29;;;;;;;0.68;0.57;;;17.60;84.20;;;;;;5031177;28;20077;-84
2022/10/16 09:09:04;;;;;;;3.17;0.70;;;17.60;84.40;;;;;;5042504;28;20041;-86
2022/10/16 09:11:42;;;;;;;2.70;0.80;;;17.50;84.40;;;;;;5027823;28;20091;-79
2022/10/16 09:14:35;;;;;;;3.47;0.98;;;17.50;84.60;;;;;;5027092;28;20026;-78
2022/10/16 09:17:18;;;;;;;4.05;1.15;;;17.50;84.70;;;;;;5025760;28;20567;-79
2022/10/16 09:19:51;;;;;;;3.03;0.90;;;17.50;84.70;;;;;;5029478;28;20116;-79
2022/10/16 09:22:17;;;;;;;3.13;0.90;;;17.60;84.60;;;;;;5026215;28;20531;-79
2022/10/16 09:24:43;;;;;;;2.03;0.90;;;17.60;84.40;;;;;;5029044;28;20489;-78
2022/10/16 09:27:12;;;;;;;3.15;0.80;;;17.60;84.20;;;;;;5027105;28;20036;-78
2022/10/16 09:29:37;;;;;;;2.70;1.00;;;17.70;84.10;;;;;;5025209;28;20103;-77
2022/10/16 09:32:17;;;;;;;1.52;0.65;;;17.70;84.00;;;;;;5031499;28;20071;-79
2022/10/16 09:34:47;;;;;;;2.92;0.80;;;17.80;83.80;;;;;;5032774;28;20033;-79
2022/10/16 09:37:17;;;;;;;2.58;0.77;;;17.80;83.60;;;;;;5032572;28;20029;-79
2022/10/16 09:39:48;;;;;;;2.97;0.93;;;17.90;83.40;;;;;;5028280;28;20033;-78
2022/10/16 09:42:20;;;;;;;2.60;0.95;;;18.00;83.20;;;;;;5030539;28;20025;-79
2022/10/16 09:44:53;;;;;;;1.60;0.68;;;18.00;83.00;;;;;;5032692;28;20034;-78
2022/10/16 09:47:23;;;;;;;2.08;0.70;;;18.00;82.90;;;;;;5028630;28;20048;-80
2022/10/16 09:50:19;;;;;;;2.58;0.80;;;18.10;83.00;;;;;;5030472;28;20030;-79
2022/10/16 09:52:44;;;;;;;2.05;0.75;;;18.00;83.20;;;;;;5029949;28;20033;-78
2022/10/16 09:55:16;;;;;;;1.42;0.80;;;17.90;83.30;;;;;;5028869;28;20040;-78
2022/10/16 09:57:52;;;;;;;1.73;0.85;;;17.90;83.50;;;;;;5031505;28;20064;-79
2022/10/16 10:00:19;;;;;;;1.58;0.73;;;17.80;83.70;;;;;;5033384;28;20037;-78
2022/10/16 10:02:45;;;;;;;1.10;0.63;;;17.80;84.00;;;;;;5033032;28;20037;-78
2022/10/16 10:05:21;;;;;;;1.85;0.98;;;17.70;84.10;;;;;;5031162;28;20037;-78
2022/10/16 10:07:58;;;;;;;1.77;0.80;;;17.70;84.30;;;;;;5031734;28;20030;-80
2022/10/16 10:10:29;;;;;;;2.35;0.82;;;17.70;84.20;;;;;;5031414;28;20037;-80
2022/10/16 10:12:56;;;;;;;1.90;0.80;;;17.70;84.30;;;;;;5029994;28;20028;-78
2022/10/16 10:15:23;;;;;;;1.30;0.80;;;17.70;84.50;;;;;;5031621;28;20636;-79
2022/10/16 10:17:52;;;;;;;1.85;0.80;;;17.60;84.50;;;;;;5030284;28;20029;-78
2022/10/16 10:20:30;;;;;;;2.65;0.80;;;17.60;84.60;;;;;;5029751;28;20029;-78
2022/10/16 10:22:56;;;;;;;2.15;0.75;;;17.60;84.70;;;;;;5030554;28;20401;-78
2022/10/16 10:25:36;;;;;;;1.92;0.70;;;17.60;84.70;;;;;;5026710;28;20613;-78
2022/10/16 10:28:21;;;;;;;1.10;0.60;;;17.60;84.70;;;;;;5027259;28;20041;-78
2022/10/16 10:30:56;;;;;;;1.65;0.70;;;17.60;84.80;;;;;;5022795;28;20037;-78
2022/10/16 10:33:33;;;;;;;1.17;0.70;;;17.60;84.90;;;;;;5017580;28;20025;-79
2022/10/16 10:36:20;;;;;;;0.80;0.70;;;17.60;84.90;;;;;;5030780;28;20493;-77
2022/10/16 10:39:08;;;;;;;1.95;0.80;;;17.60;84.60;;;;;;5009988;28;20556;-78
2022/10/16 10:41:50;;;;;;;1.45;0.60;;;17.60;84.70;;;;;;5016986;28;20036;-78
2022/10/16 10:44:40;;;;;;;1.77;0.85;;;17.60;84.60;;;;;;5029224;28;20457;-78
2022/10/16 10:47:05;;;;;;;;;;;17.70;84.30;;;;;;5028690;28;20144;-78
2022/10/16 10:50:01;;;;;;;1.52;0.70;;;17.70;84.30;;;;;;5029023;28;20007;-78
2022/10/16 10:52:50;;;;;;;2.28;0.90;;;17.70;84.50;;;;;;5029318;28;20026;-77
2022/10/16 10:56:00;;;;;;;1.25;0.60;;;17.60;84.50;;;;;;5008853;28;20029;-78
2022/10/16 10:58:51;;;;;;;0.82;0.65;;;17.70;84.40;;;;;;5002253;28;20103;-78
2022/10/16 11:01:27;;;;;;;1.27;0.70;;;17.70;84.50;;;;;;5007748;28;20026;-78
2022/10/16 11:04:20;;;;;;;1.30;0.73;;;17.70;84.50;;;;;;5018948;28;20079;-77
2022/10/16 11:06:57;;;;;;;0.80;0.60;;;17.60;84.40;;;;;;5027265;28;20037;-78
2022/10/16 11:09:37;;;;;;;0.80;0.60;;;17.70;84.60;;;;;;5026842;28;20396;-78
2022/10/16 11:12:29;;;;;;;0.90;0.60;;;17.70;84.70;;;;;;5028238;28;20022;-79
2022/10/16 11:15:13;;;;;;;1.85;0.60;;;17.60;84.80;;;;;;5025293;28;20507;-78
2022/10/16 11:17:47;;;;;;;2.28;0.90;;;17.50;84.90;;;;;;5028388;28;20031;-79
2022/10/16 11:20:32;;;;;;;0.98;0.70;;;17.50;85.10;;;;;;5027041;28;20017;-78
2022/10/16 11:23:21;;;;;;;0.90;0.60;;;17.50;85.20;;;;;;5015935;28;20041;-79
2022/10/16 11:25:48;;;;;;;1.42;0.70;;;17.60;85.10;;;;;;5031001;28;20108;-79
2022/10/16 11:28:21;;;;;;;0.98;0.70;;;17.60;84.90;;;;;;5029393;28;20036;-78
2022/10/16 11:31:15;;;;;;;0.82;0.50;;;17.60;84.90;;;;;;5029739;28;20022;-79
2022/10/16 11:34:01;;;;;;;1.35;0.70;;;17.60;84.70;;;;;;5027764;28;20041;-79
2022/10/16 11:36:39;;;;;;;1.88;0.57;;;17.70;84.70;;;;;;5025691;28;20078;-79
2022/10/16 11:39:26;;;;;;;2.50;0.73;;;17.70;84.40;;;;;;5024454;28;20037;-79
2022/10/16 11:42:13;;;;;;;1.40;0.70;;;17.80;84.20;;;;;;5024819;28;20033;-78
2022/10/16 11:45:02;;;;;;;1.90;0.80;;;17.80;83.90;;;;;;5010418;28;20102;-79
2022/10/16 11:47:46;;;;;;;3.85;0.80;;;17.90;83.70;;;;;;5010332;28;20540;-78
2022/10/16 13:50:45;;;;;;;6.75;2.58;;;17.40;84.00;;;;;;5105703;27;20879;-78
2022/10/16 13:53:14;;;;;;;5.50;2.60;;;17.30;84.30;;;;;;5083185;28;20021;-78
2022/10/16 13:55:40;;;;;;;4.80;2.28;;;17.40;84.30;;;;;;5082861;28;20563;-77
2022/10/16 13:58:13;;;;;;;6.00;2.78;;;17.40;84.20;;;;;;5082066;28;20028;-77
2022/10/16 14:00:39;;;;;;;5.93;2.50;;;17.40;84.20;;;;;;5083629;28;20032;-78
2022/10/16 14:03:12;;;;;;;5.68;2.67;;;17.40;84.10;;;;;;5084203;28;20043;-78
2022/10/16 14:05:49;;;;;;;5.43;2.65;;;17.40;84.10;;;;;;5064062;28;20600;-79
2022/10/16 14:08:15;;;;;;;5.90;2.60;;;17.40;84.10;;;;;;5063383;28;20025;-77
2022/10/16 14:10:41;;;;;;;5.28;2.42;;;17.40;84.10;;;;;;5084046;28;20025;-77
2022/10/16 14:13:07;;;;;;;5.57;2.40;;;17.50;84.10;;;;;;5082631;28;20521;-78
2022/10/16 14:15:36;;;;;;;4.53;2.50;;;17.50;84.10;;;;;;5082326;28;20044;-77
2022/10/16 14:18:02;;;;;;;5.18;2.50;;;17.40;84.00;;;;;;5081932;28;20078;-77
2022/10/16 14:20:31;;;;;;;5.45;2.40;;;17.50;84.10;;;;;;5081402;28;20117;-77
2022/10/16 14:23:19;;;;;;;4.68;2.10;;;17.40;84.20;;;;;;5081329;28;20592;-77
2022/10/16 14:25:44;;;;;;;5.05;2.15;;;17.40;84.40;;;;;;5081383;28;20048;-77
2022/10/16 14:28:13;;;;;;;5.28;2.15;;;17.40;84.50;;;;;;5081157;28;20672;-78
2022/10/16 14:30:50;;;;;;;5.75;2.42;;;17.40;84.60;;;;;;5080824;28;20451;-76
2022/10/16 14:33:28;;;;;;;4.70;2.22;;;17.40;84.70;;;;;;5082137;28;20025;-77
2022/10/16 14:36:12;;;;;;;5.47;2.42;;;17.30;84.70;;;;;;5083366;28;20036;-77
2022/10/16 14:38:39;;;;;;;5.85;2.65;;;17.30;84.80;;;;;;5089760;28;20027;-78
2022/10/16 14:41:05;;;;;;;5.57;2.38;;;17.30;84.90;;;;;;5103679;28;20122;-77
2022/10/16 14:43:42;;;;;;;5.03;2.40;;;17.30;85.00;;;;;;5090620;28;20040;-78
2022/10/16 14:46:19;;;;;;;4.38;2.25;;;17.30;85.10;;;;;;5080861;28;20032;-77
2022/10/16 14:48:49;;;;;;;6.32;2.33;;;17.30;85.10;;;;;;5070970;28;20661;-77
2022/10/16 14:51:16;;;;;;;5.00;2.35;;;17.30;85.20;;;;;;5082383;28;20026;-77
2022/10/16 14:53:42;;;;;;;5.07;2.33;;;17.30;85.20;;;;;;5086141;28;20028;-78
2022/10/16 14:56:22;;;;;;;4.45;2.15;;;17.30;85.30;;;;;;5084402;28;20028;-77
2022/10/16 14:58:50;;;;;;;5.43;2.20;;;17.20;85.20;;;;;;5085960;28;20028;-78
2022/10/16 15:01:16;;;;;;;3.97;2.10;;;17.20;85.20;;;;;;5074811;28;20035;-79
2022/10/16 15:03:41;;;;;;;5.03;2.28;;;17.30;85.20;;;;;;5071480;28;20434;-78
2022/10/16 15:06:16;;;;;;;5.30;2.10;;;17.30;85.20;;;;;;5068322;28;20029;-77